sensor_id;sensor_type;location;lat;lon;timestamp;pressure;altitude;pressure_sealevel;temperature
62107;BMP280;48087;32.600;-97.100;2022-10-03T00:08:12;;;;24.721975
62107;BMP280;48087;32.600;-97.100;2022-10-03T00:13:16;;;;23.999760000000002
62107;BMP280;48087;32.600;-97.100;2022-10-03T00:18:20;;;;23.499764999999996
62107;BMP280;48087;32.600;-97.100;2022-10-03T00:23:23;;;;23.277545000000003
62107;BMP280;48087;32.600;-97.100;2022-10-03T00:28:40;;;;23.110879999999998
62107;BMP280;48087;32.600;-97.100;2022-10-03T00:33:30;;;;22.777549999999998
62107;BMP280;48087;32.600;-97.100;2022-10-03T00:38:39;;;;22.277554999999996
62107;BMP280;48087;32.600;-97.100;2022-10-03T00:43:42;;;;21.722004999999996
62107;BMP280;48087;32.600;-97.100;2022-10-03T00:48:48;;;;21.166454999999996
62107;BMP280;48087;32.600;-97.100;2022-10-03T00:53:48;;;;20.777570000000004
62107;BMP280;48087;32.600;-97.100;2022-10-03T00:58:51;;;;20.722015
62107;BMP280;48087;32.600;-97.100;2022-10-03T01:03:55;;;;20.499795000000002
62107;BMP280;48087;32.600;-97.100;2022-10-03T01:09:02;;;;20.166465
62107;BMP280;48087;32.600;-97.100;2022-10-03T01:14:05;;;;19.777579999999997
62107;BMP280;48087;32.600;-97.100;2022-10-03T01:19:07;;;;19.55536
62107;BMP280;48087;32.600;-97.100;2022-10-03T01:25:10;;;;19.277585000000002
62107;BMP280;48087;32.600;-97.100;2022-10-03T01:29:13;;;;19.055365
62107;BMP280;48087;32.600;-97.100;2022-10-03T01:34:19;;;;18.99981
62107;BMP280;48087;32.600;-97.100;2022-10-03T01:39:22;;;;18.99981
62107;BMP280;48087;32.600;-97.100;2022-10-03T01:44:26;;;;18.777589999999996
62107;BMP280;48087;32.600;-97.100;2022-10-03T01:49:29;;;;18.388704999999998
62107;BMP280;48087;32.600;-97.100;2022-10-03T01:54:35;;;;18.277595
62107;BMP280;48087;32.600;-97.100;2022-10-03T01:59:37;;;;17.999820000000003
62107;BMP280;48087;32.600;-97.100;2022-10-03T02:04:42;;;;17.66649
62107;BMP280;48087;32.600;-97.100;2022-10-03T02:09:47;;;;17.499825
62107;BMP280;48087;32.600;-97.100;2022-10-03T02:14:50;;;;17.277605
62107;BMP280;48087;32.600;-97.100;2022-10-03T02:19:54;;;;16.944275
62107;BMP280;48087;32.600;-97.100;2022-10-03T02:25:06;;;;16.777610000000003
62107;BMP280;48087;32.600;-97.100;2022-10-03T02:30:05;;;;16.6665
62107;BMP280;48087;32.600;-97.100;2022-10-03T02:35:08;;;;16.44428
62107;BMP280;48087;32.600;-97.100;2022-10-03T02:40:14;;;;16.33317
62107;BMP280;48087;32.600;-97.100;2022-10-03T02:45:21;;;;16.277614999999997
62107;BMP280;48087;32.600;-97.100;2022-10-03T02:50:21;;;;16.166505
62107;BMP280;48087;32.600;-97.100;2022-10-03T02:55:24;;;;16.388725
62107;BMP280;48087;32.600;-97.100;2022-10-03T03:00:28;;;;16.722055
62107;BMP280;48087;32.600;-97.100;2022-10-03T03:05:32;;;;16.88872
62107;BMP280;48087;32.600;-97.100;2022-10-03T03:10:39;;;;17.055385
62107;BMP280;48087;32.600;-97.100;2022-10-03T03:16:44;;;;16.777610000000003
62107;BMP280;48087;32.600;-97.100;2022-10-03T03:20:42;;;;16.33317
62107;BMP280;48087;32.600;-97.100;2022-10-03T03:25:48;;;;16.055394999999997
62107;BMP280;48087;32.600;-97.100;2022-10-03T03:30:50;;;;15.777619999999999
62107;BMP280;48087;32.600;-97.100;2022-10-03T03:35:55;;;;15.555399999999999
62107;BMP280;48087;32.600;-97.100;2022-10-03T03:41:02;;;;15.444289999999999
62107;BMP280;48087;32.600;-97.100;2022-10-03T03:46:04;;;;15.444289999999999
62107;BMP280;48087;32.600;-97.100;2022-10-03T03:51:08;;;;15.222069999999999
62107;BMP280;48087;32.600;-97.100;2022-10-03T03:56:11;;;;14.944294999999999
62107;BMP280;48087;32.600;-97.100;2022-10-03T04:01:17;;;;14.722075
62107;BMP280;48087;32.600;-97.100;2022-10-03T04:06:22;;;;15.055405
62107;BMP280;48087;32.600;-97.100;2022-10-03T04:11:22;;;;14.99985
62107;BMP280;48087;32.600;-97.100;2022-10-03T04:16:30;;;;14.99985
62107;BMP280;48087;32.600;-97.100;2022-10-03T04:21:39;;;;14.833185000000002
62107;BMP280;48087;32.600;-97.100;2022-10-03T04:26:37;;;;14.610964999999998
62107;BMP280;48087;32.600;-97.100;2022-10-03T04:31:38;;;;14.277635000000002
62107;BMP280;48087;32.600;-97.100;2022-10-03T04:36:47;;;;14.22208
62107;BMP280;48087;32.600;-97.100;2022-10-03T04:41:44;;;;14.277635000000002
62107;BMP280;48087;32.600;-97.100;2022-10-03T04:46:49;;;;14.22208
62107;BMP280;48087;32.600;-97.100;2022-10-03T04:51:52;;;;14.277635000000002
62107;BMP280;48087;32.600;-97.100;2022-10-03T04:56:58;;;;14.277635000000002
62107;BMP280;48087;32.600;-97.100;2022-10-03T05:02:01;;;;14.610964999999998
62107;BMP280;48087;32.600;-97.100;2022-10-03T05:07:05;;;;15.055405
62107;BMP280;48087;32.600;-97.100;2022-10-03T05:12:09;;;;15.166514999999999
62107;BMP280;48087;32.600;-97.100;2022-10-03T05:17:13;;;;14.833185000000002
62107;BMP280;48087;32.600;-97.100;2022-10-03T05:22:26;;;;15.277625
62107;BMP280;48087;32.600;-97.100;2022-10-03T05:27:21;;;;15.66651
62107;BMP280;48087;32.600;-97.100;2022-10-03T05:32:25;;;;15.88873
62107;BMP280;48087;32.600;-97.100;2022-10-03T05:37:34;;;;15.66651
62107;BMP280;48087;32.600;-97.100;2022-10-03T05:42:34;;;;15.499844999999999
62107;BMP280;48087;32.600;-97.100;2022-10-03T05:47:40;;;;15.11096
62107;BMP280;48087;32.600;-97.100;2022-10-03T05:52:44;;;;14.666519999999998
62107;BMP280;48087;32.600;-97.100;2022-10-03T05:57:57;;;;14.610964999999998
62107;BMP280;48087;32.600;-97.100;2022-10-03T06:03:09;;;;14.77763
62107;BMP280;48087;32.600;-97.100;2022-10-03T06:07:59;;;;14.4443
62107;BMP280;48087;32.600;-97.100;2022-10-03T06:12:58;;;;14.22208
62107;BMP280;48087;32.600;-97.100;2022-10-03T06:18:01;;;;14.055414999999998
62107;BMP280;48087;32.600;-97.100;2022-10-03T06:23:10;;;;13.777639999999998
62107;BMP280;48087;32.600;-97.100;2022-10-03T06:29:20;;;;13.777639999999998
62107;BMP280;48087;32.600;-97.100;2022-10-03T06:33:22;;;;13.444310000000002
62107;BMP280;48087;32.600;-97.100;2022-10-03T06:38:44;;;;13.777639999999998
62107;BMP280;48087;32.600;-97.100;2022-10-03T06:43:31;;;;13.777639999999998
62107;BMP280;48087;32.600;-97.100;2022-10-03T06:48:25;;;;13.777639999999998
62107;BMP280;48087;32.600;-97.100;2022-10-03T06:53:32;;;;13.833194999999998
62107;BMP280;48087;32.600;-97.100;2022-10-03T06:59:33;;;;13.55542
62107;BMP280;48087;32.600;-97.100;2022-10-03T07:09:44;;;;13.944305
62107;BMP280;48087;32.600;-97.100;2022-10-03T07:14:03;;;;14.166525
62107;BMP280;48087;32.600;-97.100;2022-10-03T07:19:30;;;;13.944305
62107;BMP280;48087;32.600;-97.100;2022-10-03T07:23:54;;;;13.777639999999998
62107;BMP280;48087;32.600;-97.100;2022-10-03T07:29:04;;;;13.55542
62107;BMP280;48087;32.600;-97.100;2022-10-03T07:34:11;;;;13.3332
62107;BMP280;48087;32.600;-97.100;2022-10-03T07:39:10;;;;13.388755
62107;BMP280;48087;32.600;-97.100;2022-10-03T07:44:14;;;;13.610975
62107;BMP280;48087;32.600;-97.100;2022-10-03T07:49:16;;;;13.722085000000002
62107;BMP280;48087;32.600;-97.100;2022-10-03T07:54:19;;;;13.722085000000002
62107;BMP280;48087;32.600;-97.100;2022-10-03T07:59:26;;;;13.833194999999998
62107;BMP280;48087;32.600;-97.100;2022-10-03T08:04:28;;;;13.499864999999998
62107;BMP280;48087;32.600;-97.100;2022-10-03T08:10:02;;;;13.222089999999998
62107;BMP280;48087;32.600;-97.100;2022-10-03T08:14:34;;;;12.77765
62107;BMP280;48087;32.600;-97.100;2022-10-03T08:19:40;;;;12.722095
62107;BMP280;48087;32.600;-97.100;2022-10-03T08:24:48;;;;12.555430000000001
62107;BMP280;48087;32.600;-97.100;2022-10-03T08:30:54;;;;12.77765
62107;BMP280;48087;32.600;-97.100;2022-10-03T08:35:22;;;;12.722095
62107;BMP280;48087;32.600;-97.100;2022-10-03T08:39:56;;;;13.222089999999998
62107;BMP280;48087;32.600;-97.100;2022-10-03T08:46:02;;;;13.222089999999998
62107;BMP280;48087;32.600;-97.100;2022-10-03T08:50:33;;;;13.3332
62107;BMP280;48087;32.600;-97.100;2022-10-03T08:56:08;;;;13.222089999999998
62107;BMP280;48087;32.600;-97.100;2022-10-03T09:00:10;;;;13.166535000000001
62107;BMP280;48087;32.600;-97.100;2022-10-03T09:05:19;;;;13.222089999999998
62107;BMP280;48087;32.600;-97.100;2022-10-03T09:15:27;;;;13.277645
62107;BMP280;48087;32.600;-97.100;2022-10-03T09:20:30;;;;13.444310000000002
62107;BMP280;48087;32.600;-97.100;2022-10-03T09:25:30;;;;13.66653
62107;BMP280;48087;32.600;-97.100;2022-10-03T09:30:38;;;;13.722085000000002
62107;BMP280;48087;32.600;-97.100;2022-10-03T09:35:38;;;;13.610975
62107;BMP280;48087;32.600;-97.100;2022-10-03T09:40:55;;;;13.722085000000002
62107;BMP280;48087;32.600;-97.100;2022-10-03T09:45:49;;;;13.999860000000002
62107;BMP280;48087;32.600;-97.100;2022-10-03T09:50:51;;;;13.999860000000002
62107;BMP280;48087;32.600;-97.100;2022-10-03T09:55:56;;;;13.499864999999998
62107;BMP280;48087;32.600;-97.100;2022-10-03T10:01:01;;;;13.277645
62107;BMP280;48087;32.600;-97.100;2022-10-03T10:06:04;;;;13.11098
62107;BMP280;48087;32.600;-97.100;2022-10-03T10:11:08;;;;12.99987
62107;BMP280;48087;32.600;-97.100;2022-10-03T10:16:12;;;;12.833205000000001
62107;BMP280;48087;32.600;-97.100;2022-10-03T10:21:49;;;;12.888760000000001
62107;BMP280;48087;32.600;-97.100;2022-10-03T10:26:51;;;;12.666539999999998
62107;BMP280;48087;32.600;-97.100;2022-10-03T10:41:35;;;;12.666539999999998
62107;BMP280;48087;32.600;-97.100;2022-10-03T10:46:39;;;;12.888760000000001
62107;BMP280;48087;32.600;-97.100;2022-10-03T10:51:43;;;;13.055425
62107;BMP280;48087;32.600;-97.100;2022-10-03T10:57:58;;;;13.277645
62107;BMP280;48087;32.600;-97.100;2022-10-03T11:07:13;;;;13.277645
62107;BMP280;48087;32.600;-97.100;2022-10-03T11:13:14;;;;13.277645
62107;BMP280;48087;32.600;-97.100;2022-10-03T11:17:17;;;;12.99987
62107;BMP280;48087;32.600;-97.100;2022-10-03T11:27:30;;;;12.666539999999998
62107;BMP280;48087;32.600;-97.100;2022-10-03T11:32:50;;;;12.666539999999998
62107;BMP280;48087;32.600;-97.100;2022-10-03T11:37:28;;;;12.666539999999998
62107;BMP280;48087;32.600;-97.100;2022-10-03T11:42:34;;;;12.44432
62107;BMP280;48087;32.600;-97.100;2022-10-03T11:47:38;;;;12.277655000000001
62107;BMP280;48087;32.600;-97.100;2022-10-03T11:52:41;;;;11.999880000000001
62107;BMP280;48087;32.600;-97.100;2022-10-03T11:57:42;;;;11.777660000000001
62107;BMP280;48087;32.600;-97.100;2022-10-03T12:02:54;;;;11.555439999999999
62107;BMP280;48087;32.600;-97.100;2022-10-03T12:07:52;;;;11.722105
62107;BMP280;48087;32.600;-97.100;2022-10-03T12:12:55;;;;11.777660000000001
62107;BMP280;48087;32.600;-97.100;2022-10-03T12:18:01;;;;11.722105
62107;BMP280;48087;32.600;-97.100;2022-10-03T12:23:05;;;;11.777660000000001
62107;BMP280;48087;32.600;-97.100;2022-10-03T12:28:09;;;;11.944325
62107;BMP280;48087;32.600;-97.100;2022-10-03T12:33:15;;;;11.777660000000001
62107;BMP280;48087;32.600;-97.100;2022-10-03T12:38:24;;;;11.88877
62107;BMP280;48087;32.600;-97.100;2022-10-03T12:43:26;;;;11.777660000000001
62107;BMP280;48087;32.600;-97.100;2022-10-03T12:48:26;;;;11.777660000000001
62107;BMP280;48087;32.600;-97.100;2022-10-03T12:53:29;;;;11.722105
62107;BMP280;48087;32.600;-97.100;2022-10-03T12:58:32;;;;11.88877
62107;BMP280;48087;32.600;-97.100;2022-10-03T13:03:36;;;;12.333210000000001
62107;BMP280;48087;32.600;-97.100;2022-10-03T13:08:40;;;;13.166535000000001
62107;BMP280;48087;32.600;-97.100;2022-10-03T13:13:45;;;;13.55542
62107;BMP280;48087;32.600;-97.100;2022-10-03T13:18:49;;;;14.4443
62107;BMP280;48087;32.600;-97.100;2022-10-03T13:23:50;;;;15.277625
62107;BMP280;48087;32.600;-97.100;2022-10-03T13:29:05;;;;15.999839999999999
62107;BMP280;48087;32.600;-97.100;2022-10-03T13:33:59;;;;16.833164999999997
62107;BMP280;48087;32.600;-97.100;2022-10-03T13:39:06;;;;18.555370000000003
62107;BMP280;48087;32.600;-97.100;2022-10-03T13:44:12;;;;18.833145000000002
62107;BMP280;48087;32.600;-97.100;2022-10-03T13:49:11;;;;19.166475
62107;BMP280;48087;32.600;-97.100;2022-10-03T13:54:14;;;;19.499804999999995
62107;BMP280;48087;32.600;-97.100;2022-10-03T13:59:25;;;;19.888689999999997
62107;BMP280;48087;32.600;-97.100;2022-10-03T14:04:25;;;;20.222020000000004
62107;BMP280;48087;32.600;-97.100;2022-10-03T14:09:29;;;;20.999789999999997
62107;BMP280;48087;32.600;-97.100;2022-10-03T14:14:36;;;;21.055345000000003
62107;BMP280;48087;32.600;-97.100;2022-10-03T14:19:36;;;;21.1109
62107;BMP280;48087;32.600;-97.100;2022-10-03T14:24:41;;;;21.610895000000003
62107;BMP280;48087;32.600;-97.100;2022-10-03T14:29:44;;;;21.610895000000003
62107;BMP280;48087;32.600;-97.100;2022-10-03T14:34:48;;;;22.055335
62107;BMP280;48087;32.600;-97.100;2022-10-03T14:39:52;;;;21.944225
62107;BMP280;48087;32.600;-97.100;2022-10-03T14:44:55;;;;21.999779999999998
62107;BMP280;48087;32.600;-97.100;2022-10-03T14:49:58;;;;21.277565
62107;BMP280;48087;32.600;-97.100;2022-10-03T14:55:06;;;;21.88867
62107;BMP280;48087;32.600;-97.100;2022-10-03T15:00:06;;;;21.722004999999996
62107;BMP280;48087;32.600;-97.100;2022-10-03T15:05:11;;;;21.722004999999996
62107;BMP280;48087;32.600;-97.100;2022-10-03T15:10:14;;;;21.77756
62107;BMP280;48087;32.600;-97.100;2022-10-03T15:15:18;;;;21.77756
62107;BMP280;48087;32.600;-97.100;2022-10-03T15:20:22;;;;21.833115
62107;BMP280;48087;32.600;-97.100;2022-10-03T15:25:26;;;;22.33311
62107;BMP280;48087;32.600;-97.100;2022-10-03T15:30:30;;;;22.610885
62107;BMP280;48087;32.600;-97.100;2022-10-03T15:35:34;;;;22.499775
62107;BMP280;48087;32.600;-97.100;2022-10-03T15:40:43;;;;22.666439999999998
62107;BMP280;48087;32.600;-97.100;2022-10-03T15:45:42;;;;22.721995000000003
62107;BMP280;48087;32.600;-97.100;2022-10-03T15:50:48;;;;22.99977
62107;BMP280;48087;32.600;-97.100;2022-10-03T15:55:50;;;;22.944214999999996
62107;BMP280;48087;32.600;-97.100;2022-10-03T16:00:54;;;;23.221989999999998
62107;BMP280;48087;32.600;-97.100;2022-10-03T16:06:01;;;;23.166435
62107;BMP280;48087;32.600;-97.100;2022-10-03T16:11:04;;;;23.277545000000003
62107;BMP280;48087;32.600;-97.100;2022-10-03T16:16:08;;;;23.555320000000002
62107;BMP280;48087;32.600;-97.100;2022-10-03T16:21:10;;;;23.833095000000004
62107;BMP280;48087;32.600;-97.100;2022-10-03T16:26:14;;;;24.055314999999997
62107;BMP280;48087;32.600;-97.100;2022-10-03T16:31:18;;;;24.221979999999995
62107;BMP280;48087;32.600;-97.100;2022-10-03T16:36:22;;;;24.721975
62107;BMP280;48087;32.600;-97.100;2022-10-03T16:41:25;;;;24.99975
62107;BMP280;48087;32.600;-97.100;2022-10-03T16:46:31;;;;25.610854999999997
62107;BMP280;48087;32.600;-97.100;2022-10-03T16:51:35;;;;25.99974
62107;BMP280;48087;32.600;-97.100;2022-10-03T16:56:38;;;;26.6664
62107;BMP280;48087;32.600;-97.100;2022-10-03T17:01:42;;;;26.721954999999998
62107;BMP280;48087;32.600;-97.100;2022-10-03T17:06:46;;;;27.22195
62107;BMP280;48087;32.600;-97.100;2022-10-03T17:11:50;;;;27.33306
62107;BMP280;48087;32.600;-97.100;2022-10-03T17:16:55;;;;27.666389999999996
62107;BMP280;48087;32.600;-97.100;2022-10-03T17:21:58;;;;27.388614999999998
62107;BMP280;48087;32.600;-97.100;2022-10-03T17:27:03;;;;27.88861
62107;BMP280;48087;32.600;-97.100;2022-10-03T17:32:08;;;;27.999720000000003
62107;BMP280;48087;32.600;-97.100;2022-10-03T17:38:18;;;;27.944164999999998
62107;BMP280;48087;32.600;-97.100;2022-10-03T17:42:17;;;;28.110829999999996
62107;BMP280;48087;32.600;-97.100;2022-10-03T17:47:17;;;;28.610825
62107;BMP280;48087;32.600;-97.100;2022-10-03T17:52:21;;;;28.055274999999998
62107;BMP280;48087;32.600;-97.100;2022-10-03T17:57:26;;;;27.88861
62107;BMP280;48087;32.600;-97.100;2022-10-03T18:02:32;;;;29.055265
62107;BMP280;48087;32.600;-97.100;2022-10-03T18:07:33;;;;29.055265
62107;BMP280;48087;32.600;-97.100;2022-10-03T18:12:38;;;;29.388595000000002
62107;BMP280;48087;32.600;-97.100;2022-10-03T18:17:47;;;;29.110820000000004
62107;BMP280;48087;32.600;-97.100;2022-10-03T18:22:46;;;;29.721925
62107;BMP280;48087;32.600;-97.100;2022-10-03T18:28:00;;;;29.221929999999997
62107;BMP280;48087;32.600;-97.100;2022-10-03T18:32:54;;;;30.388585000000003
62107;BMP280;48087;32.600;-97.100;2022-10-03T18:38:00;;;;30.77747
62107;BMP280;48087;32.600;-97.100;2022-10-03T18:43:01;;;;30.721915
62107;BMP280;48087;32.600;-97.100;2022-10-03T18:48:08;;;;30.610804999999996
62107;BMP280;48087;32.600;-97.100;2022-10-03T18:53:13;;;;31.055245000000003
62107;BMP280;48087;32.600;-97.100;2022-10-03T18:58:15;;;;31.33302
62107;BMP280;48087;32.600;-97.100;2022-10-03T19:03:18;;;;31.444129999999998
62107;BMP280;48087;32.600;-97.100;2022-10-03T19:08:21;;;;31.721904999999996
62107;BMP280;48087;32.600;-97.100;2022-10-03T19:13:27;;;;31.721904999999996
62107;BMP280;48087;32.600;-97.100;2022-10-03T19:18:31;;;;31.88857
62107;BMP280;48087;32.600;-97.100;2022-10-03T19:23:34;;;;32.388565
62107;BMP280;48087;32.600;-97.100;2022-10-03T19:28:37;;;;30.166365
62107;BMP280;48087;32.600;-97.100;2022-10-03T19:33:42;;;;29.9997
62107;BMP280;48087;32.600;-97.100;2022-10-03T19:38:44;;;;30.721915
62107;BMP280;48087;32.600;-97.100;2022-10-03T19:43:49;;;;30.610804999999996
62107;BMP280;48087;32.600;-97.100;2022-10-03T19:49:01;;;;31.22191
62107;BMP280;48087;32.600;-97.100;2022-10-03T19:53:57;;;;31.77746
62107;BMP280;48087;32.600;-97.100;2022-10-03T19:59:02;;;;29.944145000000002
62107;BMP280;48087;32.600;-97.100;2022-10-03T20:04:05;;;;31.499685
62107;BMP280;48087;32.600;-97.100;2022-10-03T20:09:17;;;;31.77746
62107;BMP280;48087;32.600;-97.100;2022-10-03T20:14:14;;;;31.166354999999996
62107;BMP280;48087;32.600;-97.100;2022-10-03T20:19:19;;;;30.277475
62107;BMP280;48087;32.600;-97.100;2022-10-03T20:24:25;;;;30.721915
62107;BMP280;48087;32.600;-97.100;2022-10-03T20:29:25;;;;32.110789999999994
62107;BMP280;48087;32.600;-97.100;2022-10-03T20:34:29;;;;32.444120000000005
62107;BMP280;48087;32.600;-97.100;2022-10-03T20:39:32;;;;31.444129999999998
62107;BMP280;48087;32.600;-97.100;2022-10-03T20:44:46;;;;31.055245000000003
62107;BMP280;48087;32.600;-97.100;2022-10-03T20:49:41;;;;30.999689999999998
62107;BMP280;48087;32.600;-97.100;2022-10-03T20:54:46;;;;31.166354999999996
62107;BMP280;48087;32.600;-97.100;2022-10-03T20:59:50;;;;30.888579999999997
62107;BMP280;48087;32.600;-97.100;2022-10-03T21:04:54;;;;31.499685
62107;BMP280;48087;32.600;-97.100;2022-10-03T21:09:59;;;;31.555239999999998
62107;BMP280;48087;32.600;-97.100;2022-10-03T21:15:02;;;;31.610795000000003
62107;BMP280;48087;32.600;-97.100;2022-10-03T21:20:04;;;;32.721895
62107;BMP280;48087;32.600;-97.100;2022-10-03T21:25:14;;;;31.999679999999998
62107;BMP280;48087;32.600;-97.100;2022-10-03T21:30:13;;;;31.721904999999996
62107;BMP280;48087;32.600;-97.100;2022-10-03T21:35:20;;;;30.944135
62107;BMP280;48087;32.600;-97.100;2022-10-03T21:40:24;;;;30.77747
62107;BMP280;48087;32.600;-97.100;2022-10-03T21:45:27;;;;32.055235
62107;BMP280;48087;32.600;-97.100;2022-10-03T21:50:29;;;;31.666349999999998
62107;BMP280;48087;32.600;-97.100;2022-10-03T21:55:36;;;;31.166354999999996
62107;BMP280;48087;32.600;-97.100;2022-10-03T22:00:47;;;;31.444129999999998
62107;BMP280;48087;32.600;-97.100;2022-10-03T22:05:42;;;;30.944135
62107;BMP280;48087;32.600;-97.100;2022-10-03T22:10:45;;;;30.721915
62107;BMP280;48087;32.600;-97.100;2022-10-03T22:15:49;;;;30.610804999999996
62107;BMP280;48087;32.600;-97.100;2022-10-03T22:20:53;;;;29.9997
62107;BMP280;48087;32.600;-97.100;2022-10-03T22:26:00;;;;30.444139999999997
62107;BMP280;48087;32.600;-97.100;2022-10-03T22:31:18;;;;30.77747
62107;BMP280;48087;32.600;-97.100;2022-10-03T22:36:21;;;;30.444139999999997
62107;BMP280;48087;32.600;-97.100;2022-10-03T22:41:25;;;;29.944145000000002
62107;BMP280;48087;32.600;-97.100;2022-10-03T22:46:29;;;;30.333029999999997
62107;BMP280;48087;32.600;-97.100;2022-10-03T22:51:32;;;;30.888579999999997
62107;BMP280;48087;32.600;-97.100;2022-10-03T22:56:39;;;;30.610804999999996
62107;BMP280;48087;32.600;-97.100;2022-10-03T23:01:41;;;;29.9997
62107;BMP280;48087;32.600;-97.100;2022-10-03T23:06:50;;;;30.055254999999995
62107;BMP280;48087;32.600;-97.100;2022-10-03T23:11:48;;;;30.277475
62107;BMP280;48087;32.600;-97.100;2022-10-03T23:16:53;;;;29.9997
62107;BMP280;48087;32.600;-97.100;2022-10-03T23:21:57;;;;29.777479999999997
62107;BMP280;48087;32.600;-97.100;2022-10-03T23:27:04;;;;29.388595000000002
62107;BMP280;48087;32.600;-97.100;2022-10-03T23:32:04;;;;29.44415
62107;BMP280;48087;32.600;-97.100;2022-10-03T23:37:20;;;;29.277485000000002
62107;BMP280;48087;32.600;-97.100;2022-10-03T23:42:14;;;;28.99971
62107;BMP280;48087;32.600;-97.100;2022-10-03T23:47:18;;;;28.610825
62107;BMP280;48087;32.600;-97.100;2022-10-03T23:52:21;;;;27.7775
62107;BMP280;48087;32.600;-97.100;2022-10-03T23:57:25;;;;26.888620000000003
